Time;durP1;ratioP1;P1;durP2;ratioP2;P2;SDS_P1;SDS_P2;PMS_P1;PMS_P2;Temp;Humidity;BMP_temperature;BMP_pressure;BME280_temperature;BME280_humidity;BME280_pressure;Samples;Min_cycle;Max_cycle;Signal;HPM_P1;HPM_P2
2023/03/18 06:53:14;;;;;;;4.18;1.83;;;;;;;;;;10592123;27;20484;-82
2023/03/18 06:58:16;;;;;;;6.07;3.03;;;;;;;;;;10588795;28;20059;-82
2023/03/18 07:03:17;;;;;;;5.55;3.00;;;;;;;;;;10587964;28;20114;-82
2023/03/18 07:08:18;;;;;;;3.25;2.13;;;;;;;;;;10589610;28;20050;-82
2023/03/18 07:13:19;;;;;;;;;;;;;;;;;;10587190;28;20078;-82
2023/03/18 07:18:20;;;;;;;4.00;2.58;;;;;;;;;;10580774;28;19908;-82
2023/03/18 07:23:21;;;;;;;4.57;1.65;;;;;;;;;;10582940;28;20088;-83
2023/03/18 07:28:22;;;;;;;3.75;2.20;;;;;;;;;;10583610;28;20071;-83
2023/03/18 07:33:23;;;;;;;5.63;2.13;;;;;;;;;;10607108;28;20023;-82
2023/03/18 07:38:24;;;;;;;5.15;2.80;;;;;;;;;;10589591;28;20040;-82
2023/03/18 07:43:26;;;;;;;6.07;3.20;;;;;;;;;;10580797;28;20442;-82
2023/03/18 07:48:27;;;;;;;5.25;2.55;;;;;;;;;;10581126;28;20088;-81
2023/03/18 07:53:28;;;;;;;6.30;4.15;;;;;;;;;;10584674;28;20105;-82
2023/03/18 07:58:30;;;;;;;3.55;2.33;;;;;;;;;;10583155;28;20020;-81
2023/03/18 08:03:31;;;;;;;5.35;2.13;;;;;;;;;;10564569;28;20035;-82
2023/03/18 08:08:32;;;;;;;5.55;2.40;;;;;;;;;;10560078;28;20050;-81
2023/03/18 08:13:34;;;;;;;5.00;3.22;;;;;;;;;;10573499;28;20012;-79
2023/03/18 08:18:35;;;;;;;5.43;2.50;;;;;;;;;;10567239;28;20033;-81
2023/03/18 08:23:36;;;;;;;3.90;2.47;;;;;;;;;;10561196;28;20017;-81
2023/03/18 08:28:38;;;;;;;4.95;2.40;;;;;;;;;;10548817;28;20020;-80
2023/03/18 08:33:40;;;;;;;5.68;3.00;;;;;;;;;;10554880;28;20036;-79
2023/03/18 08:38:41;;;;;;;5.13;3.72;;;;;;;;;;10549744;28;20028;-81
2023/03/18 08:43:43;;;;;;;6.53;3.72;;;;;;;;;;10548843;28;20016;-79
2023/03/18 08:48:45;;;;;;;5.57;3.85;;;;;;;;;;10554225;28;20035;-81
2023/03/18 08:53:46;;;;;;;3.63;2.30;;;;;;;;;;10548116;28;20028;-81
2023/03/18 08:58:47;;;;;;;4.22;2.47;;;;;;;;;;10548064;28;20060;-81
2023/03/18 09:03:49;;;;;;;5.78;3.90;;;;;;;;;;10545669;28;20020;-81
2023/03/18 09:08:50;;;;;;;5.07;2.97;;;;;;;;;;10545817;28;20119;-81
2023/03/18 09:13:52;;;;;;;4.88;3.08;;;;;;;;;;10546849;28;20028;-80
2023/03/18 09:18:53;;;;;;;4.90;2.38;;;;;;;;;;10549260;28;20503;-81
2023/03/18 09:23:54;;;;;;;3.78;2.85;;;;;;;;;;10548839;28;20485;-81
2023/03/18 09:28:56;;;;;;;5.40;3.33;;;;;;;;;;10551164;28;20020;-80
2023/03/18 09:33:57;;;;;;;3.45;2.30;;;;;;;;;;10548582;28;20020;-80
2023/03/18 09:39:04;;;;;;;2.83;1.77;;;;;;;;;;10552920;28;20119;-80
2023/03/18 09:44:16;;;;;;;5.90;2.58;;;;;;;;;;10557854;28;20027;-80
2023/03/18 09:49:37;;;;;;;3.78;2.13;;;;;;;;;;10553151;28;20084;-81
2023/03/18 09:54:46;;;;;;;4.47;2.05;;;;;;;;;;10549573;28;20028;-80
2023/03/18 09:59:50;;;;;;;4.55;2.33;;;;;;;;;;10548892;28;20020;-79
2023/03/18 10:04:59;;;;;;;4.22;2.13;;;;;;;;;;10554632;28;20028;-79
2023/03/18 10:10:04;;;;;;;3.38;2.00;;;;;;;;;;10548059;28;20024;-80
2023/03/18 10:15:22;;;;;;;4.93;2.55;;;;;;;;;;10546546;28;20084;-80
2023/03/18 10:20:23;;;;;;;3.72;1.73;;;;;;;;;;10545696;28;20028;-81
2023/03/18 10:25:33;;;;;;;2.85;2.10;;;;;;;;;;10547371;28;20060;-81
2023/03/18 10:30:48;;;;;;;3.47;2.10;;;;;;;;;;10546534;28;20028;-81
2023/03/18 10:36:11;;;;;;;4.20;3.00;;;;;;;;;;10547953;28;20476;-80
2023/03/18 10:41:18;;;;;;;3.63;2.20;;;;;;;;;;10545712;28;20036;-80
2023/03/18 10:46:20;;;;;;;3.63;2.45;;;;;;;;;;10545697;28;20119;-80
2023/03/18 10:51:26;;;;;;;2.83;1.98;;;;;;;;;;10545571;28;20051;-79
2023/03/18 10:56:27;;;;;;;3.13;1.80;;;;;;;;;;10555858;28;20074;-79
2023/03/18 11:01:28;;;;;;;4.13;2.70;;;;;;;;;;10547173;28;20024;-79
2023/03/18 11:06:40;;;;;;;4.65;2.40;;;;;;;;;;10544378;28;20028;-79
2023/03/18 11:11:45;;;;;;;3.67;2.05;;;;;;;;;;10543041;28;20478;-80
2023/03/18 11:16:49;;;;;;;2.72;1.40;;;;;;;;;;10542774;28;20020;-80
2023/03/18 11:22:00;;;;;;;21.08;15.70;;;;;;;;;;10544933;28;20016;-80
2023/03/18 11:27:01;;;;;;;3.33;2.33;;;;;;;;;;10544901;28;20031;-80
2023/03/18 11:32:02;;;;;;;4.53;3.60;;;;;;;;;;10544189;28;20038;-81
2023/03/18 11:37:07;;;;;;;3.08;1.77;;;;;;;;;;10548162;28;20102;-80
2023/03/18 11:42:20;;;;;;;2.88;1.60;;;;;;;;;;10552764;28;20119;-81
2023/03/18 11:47:23;;;;;;;3.13;2.53;;;;;;;;;;10550875;28;20551;-81
2023/03/18 11:52:24;;;;;;;3.33;1.80;;;;;;;;;;10558946;28;20018;-79
2023/03/18 11:57:31;;;;;;;2.90;1.90;;;;;;;;;;10570873;28;20031;-80
2023/03/18 12:02:32;;;;;;;3.08;1.85;;;;;;;;;;10557250;28;20024;-79
2023/03/18 12:07:52;;;;;;;4.15;2.70;;;;;;;;;;10556155;28;20034;-80
2023/03/18 12:12:59;;;;;;;3.17;1.90;;;;;;;;;;10548193;28;20034;-80
2023/03/18 12:18:04;;;;;;;2.33;1.85;;;;;;;;;;10549298;28;20024;-80
2023/03/18 12:23:23;;;;;;;2.55;1.38;;;;;;;;;;10548251;28;20497;-80
2023/03/18 12:28:36;;;;;;;2.65;1.65;;;;;;;;;;10548540;28;20540;-81
2023/03/18 12:33:37;;;;;;;2.05;1.70;;;;;;;;;;10549782;28;20016;-80
2023/03/18 12:38:54;;;;;;;3.55;2.05;;;;;;;;;;10552627;28;20516;-81
2023/03/18 12:43:59;;;;;;;2.65;1.60;;;;;;;;;;10554003;28;20020;-81
2023/03/18 12:49:03;;;;;;;5.07;1.80;;;;;;;;;;10564330;28;20117;-81
2023/03/18 12:54:09;;;;;;;3.20;1.60;;;;;;;;;;10568668;28;20024;-79
2023/03/18 12:59:30;;;;;;;3.72;1.67;;;;;;;;;;10555662;28;20032;-81
2023/03/18 13:04:34;;;;;;;3.50;1.50;;;;;;;;;;10549080;28;20028;-80
2023/03/18 13:09:38;;;;;;;3.63;2.13;;;;;;;;;;10549171;28;20119;-80
2023/03/18 13:14:46;;;;;;;2.70;1.67;;;;;;;;;;10550771;28;20054;-80
2023/03/18 13:19:47;;;;;;;2.55;1.85;;;;;;;;;;10545772;28;20032;-80
2023/03/18 13:25:04;;;;;;;2.25;1.60;;;;;;;;;;10549149;28;20032;-80
2023/03/18 13:30:24;;;;;;;2.97;1.90;;;;;;;;;;10551172;28;20023;-80
2023/03/18 13:35:30;;;;;;;3.47;1.50;;;;;;;;;;10552249;28;20047;-80
2023/03/18 13:40:42;;;;;;;2.17;1.42;;;;;;;;;;10564815;28;20092;-79
2023/03/18 13:45:47;;;;;;;1.98;1.50;;;;;;;;;;10586179;28;20028;-79
2023/03/18 13:50:50;;;;;;;4.22;1.40;;;;;;;;;;10566728;28;20040;-79
2023/03/18 13:55:52;;;;;;;2.97;1.40;;;;;;;;;;10550310;28;20054;-80
2023/03/18 14:00:56;;;;;;;2.38;1.40;;;;;;;;;;10550996;28;20033;-80
2023/03/18 14:06:04;;;;;;;2.38;1.58;;;;;;;;;;10552839;28;20107;-80
2023/03/18 14:11:27;;;;;;;2.35;1.35;;;;;;;;;;10551458;28;20030;-80
2023/03/18 14:16:28;;;;;;;3.65;1.42;;;;;;;;;;10550172;28;20035;-79
2023/03/18 14:21:31;;;;;;;2.80;1.60;;;;;;;;;;10552003;28;20058;-80
2023/03/18 14:26:32;;;;;;;2.28;1.80;;;;;;;;;;10550702;28;20093;-79
2023/03/18 14:31:37;;;;;;;3.05;1.90;;;;;;;;;;10555561;28;20096;-80
2023/03/18 14:36:53;;;;;;;9.43;6.80;;;;;;;;;;10551433;28;20024;-79
2023/03/18 14:41:56;;;;;;;10.75;6.78;;;;;;;;;;10547684;28;20474;-80
2023/03/18 14:47:05;;;;;;;24.02;17.23;;;;;;;;;;10546502;28;20028;-80
2023/03/18 14:52:16;;;;;;;3.83;2.42;;;;;;;;;;10547155;28;20430;-80
2023/03/18 14:57:20;;;;;;;5.35;2.83;;;;;;;;;;10548691;28;20020;-80
2023/03/18 15:02:36;;;;;;;4.78;2.40;;;;;;;;;;10548354;28;20040;-80
2023/03/18 15:07:38;;;;;;;6.18;4.50;;;;;;;;;;10545626;28;20367;-80
2023/03/18 15:12:39;;;;;;;4.00;1.58;;;;;;;;;;10550697;28;20016;-79
2023/03/18 15:17:44;;;;;;;3.90;1.65;;;;;;;;;;10563686;28;20066;-80
2023/03/18 15:22:45;;;;;;;3.78;1.70;;;;;;;;;;10566141;28;20474;-80
2023/03/18 15:27:47;;;;;;;3.47;2.13;;;;;;;;;;10566241;28;20463;-80
2023/03/18 15:32:48;;;;;;;2.97;1.98;;;;;;;;;;10570466;28;20389;-80
2023/03/18 15:38:09;;;;;;;2.67;1.52;;;;;;;;;;10587032;28;20070;-79
2023/03/18 15:43:10;;;;;;;4.18;2.13;;;;;;;;;;10558385;28;20170;-80
2023/03/18 15:48:20;;;;;;;4.40;1.80;;;;;;;;;;10559056;28;20495;-79
2023/03/18 15:53:25;;;;;;;3.78;2.25;;;;;;;;;;10563151;28;20032;-79
2023/03/18 15:58:27;;;;;;;3.13;1.70;;;;;;;;;;10561390;28;20034;-80
2023/03/18 16:03:32;;;;;;;2.17;1.45;;;;;;;;;;10560530;28;20122;-79
2023/03/18 16:08:33;;;;;;;3.70;1.92;;;;;;;;;;10559304;28;20048;-80
2023/03/18 16:13:36;;;;;;;2.40;1.80;;;;;;;;;;10560887;28;20039;-80
2023/03/18 16:18:36;;;;;;;2.90;2.30;;;;;;;;;;10565909;28;20016;-80
2023/03/18 16:23:39;;;;;;;2.10;1.25;;;;;;;;;;10565572;28;20466;-80
2023/03/18 16:28:41;;;;;;;3.30;1.70;;;;;;;;;;10562355;28;20020;-80
2023/03/18 16:33:45;;;;;;;2.13;1.25;;;;;;;;;;10565299;28;20102;-80
2023/03/18 16:38:46;;;;;;;2.20;1.42;;;;;;;;;;10564856;28;20022;-80
2023/03/18 16:43:48;;;;;;;2.90;1.55;;;;;;;;;;10566649;28;20020;-80
2023/03/18 16:48:49;;;;;;;3.22;1.58;;;;;;;;;;10581125;28;20028;-79
2023/03/18 16:53:52;;;;;;;2.53;1.90;;;;;;;;;;10568375;28;20027;-80
2023/03/18 16:58:53;;;;;;;3.65;1.80;;;;;;;;;;10568136;28;20034;-79
2023/03/18 17:03:54;;;;;;;3.58;2.13;;;;;;;;;;10574863;28;20466;-79
2023/03/18 17:08:55;;;;;;;2.55;2.00;;;;;;;;;;10573818;28;20027;-79
2023/03/18 17:13:56;;;;;;;3.17;1.70;;;;;;;;;;10566554;28;20024;-79
2023/03/18 17:18:57;;;;;;;3.50;1.80;;;;;;;;;;10564317;28;20063;-80
2023/03/18 17:23:58;;;;;;;4.07;2.80;;;;;;;;;;10564584;28;20024;-80
2023/03/18 17:28:59;;;;;;;5.88;4.38;;;;;;;;;;10572470;28;20116;-80
2023/03/18 17:34:01;;;;;;;3.67;2.70;;;;;;;;;;10561580;28;20040;-80
2023/03/18 17:39:03;;;;;;;4.15;2.58;;;;;;;;;;10561741;28;20039;-80
2023/03/18 17:44:15;;;;;;;6.43;5.18;;;;;;;;;;10568294;28;20040;-80
2023/03/18 17:49:19;;;;;;;4.63;3.60;;;;;;;;;;10566096;28;20059;-80
2023/03/18 17:54:24;;;;;;;7.68;6.75;;;;;;;;;;10563245;28;20040;-80
2023/03/18 17:59:26;;;;;;;3.83;3.03;;;;;;;;;;10572181;28;20028;-79
2023/03/18 18:04:28;;;;;;;3.65;3.13;;;;;;;;;;10573281;28;20131;-79
2023/03/18 18:09:29;;;;;;;4.72;3.70;;;;;;;;;;10561262;28;20505;-80
2023/03/18 18:14:31;;;;;;;8.77;5.60;;;;;;;;;;10558885;28;20024;-80
2023/03/18 18:19:32;;;;;;;5.30;4.20;;;;;;;;;;10559037;28;20111;-80
2023/03/18 18:24:33;;;;;;;6.97;5.38;;;;;;;;;;10556893;28;20024;-81
2023/03/18 18:29:35;;;;;;;7.72;5.90;;;;;;;;;;10557320;28;20024;-79
2023/03/18 18:34:36;;;;;;;6.38;5.40;;;;;;;;;;10561457;28;20048;-79
2023/03/18 18:39:37;;;;;;;9.93;8.30;;;;;;;;;;10539392;22;20038;-83
2023/03/18 18:44:39;;;;;;;6.15;5.30;;;;;;;;;;10407045;28;20026;-83
2023/03/18 18:49:40;;;;;;;6.47;5.78;;;;;;;;;;10395367;28;20088;-83
2023/03/18 18:54:41;;;;;;;6.22;5.20;;;;;;;;;;10395787;28;20026;-83
2023/03/18 18:59:42;;;;;;;7.55;6.53;;;;;;;;;;10394943;28;20052;-83
2023/03/18 19:04:43;;;;;;;5.50;4.57;;;;;;;;;;10392324;28;20093;-83
2023/03/18 19:09:44;;;;;;;5.85;5.03;;;;;;;;;;10393530;28;20553;-83
2023/03/18 19:14:45;;;;;;;5.90;5.13;;;;;;;;;;10394659;28;20030;-83
2023/03/18 19:19:47;;;;;;;6.40;4.85;;;;;;;;;;10394048;28;20029;-83
2023/03/18 19:24:48;;;;;;;6.57;5.10;;;;;;;;;;10393004;28;20033;-83
2023/03/18 19:29:50;;;;;;;7.65;5.68;;;;;;;;;;10393431;28;20026;-84
2023/03/18 19:34:52;;;;;;;6.13;4.60;;;;;;;;;;10393638;28;20026;-84
2023/03/18 19:39:54;;;;;;;7.68;6.20;;;;;;;;;;10395061;28;20064;-84
2023/03/18 19:44:55;;;;;;;6.95;6.05;;;;;;;;;;10394535;28;20080;-84
2023/03/18 19:49:56;;;;;;;5.68;4.75;;;;;;;;;;10392604;28;20030;-84
2023/03/18 19:54:57;;;;;;;9.25;7.35;;;;;;;;;;10393000;28;20029;-84
2023/03/18 19:59:59;;;;;;;7.97;6.03;;;;;;;;;;10397775;28;20091;-84
2023/03/18 20:05:02;;;;;;;8.27;7.40;;;;;;;;;;10401508;28;20036;-84
2023/03/18 20:10:03;;;;;;;7.95;7.15;;;;;;;;;;10400774;28;20175;-83
2023/03/18 20:15:05;;;;;;;8.85;7.43;;;;;;;;;;10400829;28;20431;-84
